Weather at Newhaven Airport [CLOSED]

Public forecast

Using degrees Celsius for public forecast. Weather courtesy of forecast.io.

Closest aviation weather report (METAR) to Newhaven Airport

Closest report is Avalon Airport, 49.9 nm (92.3 km) NW.

2024/06/18 04:30 (retrieved 36 minutes ago)

YMAV 180430Z AUTO 10004KT 9999 // OVC039 12/03 Q1018 RF000/0000

Closest aviation forecast (TAF) to Newhaven Airport

Forecast is more than 6 hours old.

Closest forecast is Avalon Airport, 49.9 nm (92.3 km) NW.

2024/06/17 18:36 (retrieved 11 hours ago)

TAF YMAV 171702Z 1718/1818 27006KT 9999 BKN040 FM180500 10005KT 9999 BKN040 FM180800 28005KT 9999 BKN040